sensor_id;sensor_type;location;lat;lon;timestamp;pressure;altitude;pressure_sealevel;temperature;humidity
45793;BME280;31495;42.740;22.908;2023-08-06T00:00:55;92014.38;;;19.95;80.56
45793;BME280;31495;42.740;22.908;2023-08-06T00:01:55;92009.34;;;19.99;80.24
45793;BME280;31495;42.740;22.908;2023-08-06T00:02:54;91985.75;;;19.85;80.63
45793;BME280;31495;42.740;22.908;2023-08-06T00:03:54;92014.09;;;19.97;80.63
45793;BME280;31495;42.740;22.908;2023-08-06T00:04:53;92030.06;;;20.00;80.72
45793;BME280;31495;42.740;22.908;2023-08-06T00:05:52;92039.75;;;20.00;81.18
45793;BME280;31495;42.740;22.908;2023-08-06T00:06:52;92039.00;;;19.99;80.88
45793;BME280;31495;42.740;22.908;2023-08-06T00:07:51;92035.78;;;20.02;80.96
45793;BME280;31495;42.740;22.908;2023-08-06T00:08:51;92033.63;;;20.05;80.59
45793;BME280;31495;42.740;22.908;2023-08-06T00:09:50;92033.53;;;20.10;79.80
45793;BME280;31495;42.740;22.908;2023-08-06T00:10:50;92038.00;;;20.09;79.76
45793;BME280;31495;42.740;22.908;2023-08-06T00:11:49;92008.88;;;19.83;79.88
45793;BME280;31495;42.740;22.908;2023-08-06T00:12:49;92008.19;;;19.77;79.73
45793;BME280;31495;42.740;22.908;2023-08-06T00:13:48;92034.16;;;19.93;79.72
45793;BME280;31495;42.740;22.908;2023-08-06T00:14:51;92028.13;;;19.92;80.42
45793;BME280;31495;42.740;22.908;2023-08-06T00:15:51;92040.06;;;19.98;79.78
45793;BME280;31495;42.740;22.908;2023-08-06T00:16:51;92039.19;;;20.03;79.67
45793;BME280;31495;42.740;22.908;2023-08-06T00:17:50;92031.00;;;20.05;79.44
45793;BME280;31495;42.740;22.908;2023-08-06T00:18:50;92046.66;;;20.10;79.61
45793;BME280;31495;42.740;22.908;2023-08-06T00:19:49;92047.44;;;20.10;79.88
45793;BME280;31495;42.740;22.908;2023-08-06T00:20:48;92036.63;;;20.12;78.41
45793;BME280;31495;42.740;22.908;2023-08-06T00:21:48;92027.50;;;20.09;78.73
45793;BME280;31495;42.740;22.908;2023-08-06T00:22:47;92038.66;;;20.15;79.30
45793;BME280;31495;42.740;22.908;2023-08-06T00:23:47;92018.66;;;20.05;78.39
45793;BME280;31495;42.740;22.908;2023-08-06T00:24:46;92049.84;;;20.20;78.77
45793;BME280;31495;42.740;22.908;2023-08-06T00:25:46;92009.06;;;20.00;78.37
45793;BME280;31495;42.740;22.908;2023-08-06T00:26:45;92040.41;;;20.19;78.07
45793;BME280;31495;42.740;22.908;2023-08-06T00:27:45;92044.59;;;20.20;77.95
45793;BME280;31495;42.740;22.908;2023-08-06T00:28:44;92036.84;;;20.15;78.20
45793;BME280;31495;42.740;22.908;2023-08-06T00:29:44;92032.34;;;20.16;78.63
45793;BME280;31495;42.740;22.908;2023-08-06T00:30:43;92028.84;;;20.20;77.96
45793;BME280;31495;42.740;22.908;2023-08-06T00:31:43;92018.88;;;20.09;78.82
45793;BME280;31495;42.740;22.908;2023-08-06T00:32:42;92033.22;;;20.11;78.46
45793;BME280;31495;42.740;22.908;2023-08-06T00:33:42;91981.06;;;19.82;78.75
45793;BME280;31495;42.740;22.908;2023-08-06T00:34:41;92015.09;;;19.87;78.67
45793;BME280;31495;42.740;22.908;2023-08-06T00:35:41;92024.06;;;19.86;79.75
45793;BME280;31495;42.740;22.908;2023-08-06T00:36:40;91997.41;;;19.65;79.64
45793;BME280;31495;42.740;22.908;2023-08-06T00:37:40;92034.94;;;19.79;79.31
45793;BME280;31495;42.740;22.908;2023-08-06T00:38:39;92027.66;;;19.76;79.92
45793;BME280;31495;42.740;22.908;2023-08-06T00:39:39;91992.84;;;19.43;80.32
45793;BME280;31495;42.740;22.908;2023-08-06T00:40:38;91985.16;;;19.33;80.88
45793;BME280;31495;42.740;22.908;2023-08-06T00:41:38;92014.81;;;19.47;81.53
45793;BME280;31495;42.740;22.908;2023-08-06T00:42:37;92009.09;;;19.45;82.27
45793;BME280;31495;42.740;22.908;2023-08-06T00:43:37;92014.13;;;19.41;82.60
45793;BME280;31495;42.740;22.908;2023-08-06T00:44:37;91996.75;;;19.32;82.15
45793;BME280;31495;42.740;22.908;2023-08-06T00:45:37;92020.44;;;19.40;82.60
45793;BME280;31495;42.740;22.908;2023-08-06T00:46:37;92018.78;;;19.44;82.53
45793;BME280;31495;42.740;22.908;2023-08-06T00:47:36;92018.47;;;19.46;81.88
45793;BME280;31495;42.740;22.908;2023-08-06T00:48:37;92032.09;;;19.62;81.64
45793;BME280;31495;42.740;22.908;2023-08-06T00:49:38;92025.78;;;19.63;80.51
45793;BME280;31495;42.740;22.908;2023-08-06T00:50:37;92034.03;;;19.70;80.49
45793;BME280;31495;42.740;22.908;2023-08-06T00:51:37;92002.88;;;19.55;80.13
45793;BME280;31495;42.740;22.908;2023-08-06T00:52:37;92034.94;;;19.79;80.11
45793;BME280;31495;42.740;22.908;2023-08-06T00:53:39;92024.03;;;19.58;79.67
45793;BME280;31495;42.740;22.908;2023-08-06T00:54:39;92016.16;;;19.44;79.89
45793;BME280;31495;42.740;22.908;2023-08-06T00:55:39;91996.44;;;19.19;80.79
45793;BME280;31495;42.740;22.908;2023-08-06T00:56:41;92004.81;;;19.35;81.01
45793;BME280;31495;42.740;22.908;2023-08-06T00:57:41;92022.56;;;19.52;81.10
45793;BME280;31495;42.740;22.908;2023-08-06T00:58:41;91999.66;;;19.44;81.40
45793;BME280;31495;42.740;22.908;2023-08-06T00:59:40;92012.38;;;19.64;80.62
45793;BME280;31495;42.740;22.908;2023-08-06T01:00:40;92001.19;;;19.59;80.58
45793;BME280;31495;42.740;22.908;2023-08-06T01:01:39;91983.81;;;19.49;80.16
45793;BME280;31495;42.740;22.908;2023-08-06T01:02:38;92017.63;;;19.78;79.98
45793;BME280;31495;42.740;22.908;2023-08-06T01:03:38;92026.19;;;19.84;79.98
45793;BME280;31495;42.740;22.908;2023-08-06T01:04:38;92008.09;;;19.69;79.73
45793;BME280;31495;42.740;22.908;2023-08-06T01:05:37;92015.47;;;19.80;79.74
45793;BME280;31495;42.740;22.908;2023-08-06T01:11:57;92005.59;;;19.50;81.23
45793;BME280;31495;42.740;22.908;2023-08-06T01:14:15;91991.09;;;19.52;80.19
45793;BME280;31495;42.740;22.908;2023-08-06T01:15:30;91991.47;;;19.59;79.70
45793;BME280;31495;42.740;22.908;2023-08-06T01:16:32;92006.75;;;19.71;80.20
45793;BME280;31495;42.740;22.908;2023-08-06T01:17:33;91996.34;;;19.66;80.91
45793;BME280;31495;42.740;22.908;2023-08-06T01:18:33;91999.63;;;19.72;80.66
45793;BME280;31495;42.740;22.908;2023-08-06T01:19:32;92004.81;;;19.77;80.81
45793;BME280;31495;42.740;22.908;2023-08-06T01:20:32;91997.13;;;19.80;80.61
45793;BME280;31495;42.740;22.908;2023-08-06T01:21:31;91980.28;;;19.68;79.95
45793;BME280;31495;42.740;22.908;2023-08-06T01:22:31;92001.78;;;19.70;78.98
45793;BME280;31495;42.740;22.908;2023-08-06T01:23:30;91971.38;;;19.55;79.26
45793;BME280;31495;42.740;22.908;2023-08-06T01:24:30;91981.78;;;19.60;79.27
45793;BME280;31495;42.740;22.908;2023-08-06T01:25:34;91996.94;;;19.77;79.13
45793;BME280;31495;42.740;22.908;2023-08-06T01:26:42;92007.81;;;19.84;79.28
45793;BME280;31495;42.740;22.908;2023-08-06T01:27:48;92005.75;;;19.95;77.93
45793;BME280;31495;42.740;22.908;2023-08-06T01:29:10;92003.72;;;19.92;79.14
45793;BME280;31495;42.740;22.908;2023-08-06T01:30:18;91955.81;;;19.58;77.77
45793;BME280;31495;42.740;22.908;2023-08-06T01:31:22;91996.63;;;19.78;78.11
45793;BME280;31495;42.740;22.908;2023-08-06T01:32:24;91998.38;;;19.83;78.20
45793;BME280;31495;42.740;22.908;2023-08-06T01:33:24;91994.69;;;19.84;78.44
45793;BME280;31495;42.740;22.908;2023-08-06T01:34:28;91970.47;;;19.73;78.61
45793;BME280;31495;42.740;22.908;2023-08-06T01:35:28;92000.59;;;19.90;77.66
45793;BME280;31495;42.740;22.908;2023-08-06T01:36:30;91999.53;;;19.91;77.55
45793;BME280;31495;42.740;22.908;2023-08-06T01:37:29;91953.28;;;19.67;77.39
45793;BME280;31495;42.740;22.908;2023-08-06T01:38:29;91984.19;;;19.84;78.06
45793;BME280;31495;42.740;22.908;2023-08-06T01:39:33;91987.19;;;19.91;78.14
45793;BME280;31495;42.740;22.908;2023-08-06T01:40:33;91981.81;;;19.96;78.18
45793;BME280;31495;42.740;22.908;2023-08-06T01:41:33;91986.78;;;19.98;77.85
45793;BME280;31495;42.740;22.908;2023-08-06T01:42:32;91960.59;;;19.84;78.05
45793;BME280;31495;42.740;22.908;2023-08-06T01:43:32;91968.53;;;19.93;78.10
45793;BME280;31495;42.740;22.908;2023-08-06T01:44:31;91947.06;;;19.77;77.41
45793;BME280;31495;42.740;22.908;2023-08-06T01:45:31;91966.19;;;19.77;79.08
45793;BME280;31495;42.740;22.908;2023-08-06T01:46:30;91946.16;;;19.68;79.08
45793;BME280;31495;42.740;22.908;2023-08-06T01:47:30;91953.97;;;19.73;79.09
45793;BME280;31495;42.740;22.908;2023-08-06T01:48:29;91963.50;;;19.82;78.93
45793;BME280;31495;42.740;22.908;2023-08-06T01:49:29;91940.28;;;19.62;78.66
45793;BME280;31495;42.740;22.908;2023-08-06T01:50:28;91956.09;;;19.71;78.67
45793;BME280;31495;42.740;22.908;2023-08-06T01:51:27;91971.66;;;19.81;79.15
45793;BME280;31495;42.740;22.908;2023-08-06T01:52:27;91943.06;;;19.65;79.21
45793;BME280;31495;42.740;22.908;2023-08-06T01:53:27;91942.41;;;19.60;78.29
45793;BME280;31495;42.740;22.908;2023-08-06T01:54:27;91943.47;;;19.59;78.05
45793;BME280;31495;42.740;22.908;2023-08-06T01:55:27;91967.09;;;19.73;78.26
45793;BME280;31495;42.740;22.908;2023-08-06T01:56:28;91972.03;;;19.74;78.93
45793;BME280;31495;42.740;22.908;2023-08-06T01:57:28;91947.66;;;19.60;79.79
45793;BME280;31495;42.740;22.908;2023-08-06T01:58:27;91945.41;;;19.67;80.14
45793;BME280;31495;42.740;22.908;2023-08-06T01:59:27;91943.19;;;19.60;80.06
45793;BME280;31495;42.740;22.908;2023-08-06T02:00:26;91950.47;;;19.63;80.41
45793;BME280;31495;42.740;22.908;2023-08-06T02:01:28;91960.75;;;19.74;80.47
45793;BME280;31495;42.740;22.908;2023-08-06T02:02:27;91963.09;;;19.75;80.95
45793;BME280;31495;42.740;22.908;2023-08-06T02:03:27;91953.97;;;19.73;80.80
45793;BME280;31495;42.740;22.908;2023-08-06T02:04:26;91946.78;;;19.64;80.83
45793;BME280;31495;42.740;22.908;2023-08-06T02:05:25;91958.84;;;19.79;80.49
45793;BME280;31495;42.740;22.908;2023-08-06T02:06:25;91944.72;;;19.75;80.47
45793;BME280;31495;42.740;22.908;2023-08-06T02:07:24;91933.44;;;19.75;79.64
45793;BME280;31495;42.740;22.908;2023-08-06T02:08:24;91942.56;;;19.91;79.39
45793;BME280;31495;42.740;22.908;2023-08-06T02:09:23;91946.75;;;19.92;78.77
45793;BME280;31495;42.740;22.908;2023-08-06T02:10:23;91937.25;;;19.82;78.55
45793;BME280;31495;42.740;22.908;2023-08-06T02:11:22;91915.31;;;19.64;79.16
45793;BME280;31495;42.740;22.908;2023-08-06T02:12:21;91930.06;;;19.74;79.13
45793;BME280;31495;42.740;22.908;2023-08-06T02:13:21;91883.34;;;19.49;79.36
45793;BME280;31495;42.740;22.908;2023-08-06T02:14:20;91927.06;;;19.81;79.48
45793;BME280;31495;42.740;22.908;2023-08-06T02:15:20;91929.16;;;19.79;79.42
45793;BME280;31495;42.740;22.908;2023-08-06T02:16:19;91931.78;;;19.79;79.55
45793;BME280;31495;42.740;22.908;2023-08-06T02:17:19;91928.41;;;19.78;79.29
45793;BME280;31495;42.740;22.908;2023-08-06T02:18:18;91908.38;;;19.69;79.13
45793;BME280;31495;42.740;22.908;2023-08-06T02:19:17;91879.34;;;19.51;78.65
45793;BME280;31495;42.740;22.908;2023-08-06T02:20:17;91923.91;;;19.79;78.57
45793;BME280;31495;42.740;22.908;2023-08-06T02:21:16;91863.44;;;19.47;78.45
45793;BME280;31495;42.740;22.908;2023-08-06T02:22:15;91924.59;;;19.85;78.83
45793;BME280;31495;42.740;22.908;2023-08-06T02:23:15;91932.97;;;19.73;79.47
45793;BME280;31495;42.740;22.908;2023-08-06T02:24:14;91928.50;;;19.59;79.88
45793;BME280;31495;42.740;22.908;2023-08-06T02:25:14;91915.25;;;19.42;80.69
45793;BME280;31495;42.740;22.908;2023-08-06T02:26:13;91924.56;;;19.34;81.48
45793;BME280;31495;42.740;22.908;2023-08-06T02:27:13;91951.09;;;19.46;82.29
45793;BME280;31495;42.740;22.908;2023-08-06T02:28:12;91937.09;;;19.37;82.38
45793;BME280;31495;42.740;22.908;2023-08-06T02:29:11;91973.22;;;19.54;82.01
45793;BME280;31495;42.740;22.908;2023-08-06T02:30:11;91959.81;;;19.42;82.12
45793;BME280;31495;42.740;22.908;2023-08-06T02:31:11;91971.38;;;19.55;81.87
45793;BME280;31495;42.740;22.908;2023-08-06T02:32:10;91956.91;;;19.43;81.88
45793;BME280;31495;42.740;22.908;2023-08-06T02:33:09;91980.72;;;19.47;82.55
45793;BME280;31495;42.740;22.908;2023-08-06T02:34:09;91943.22;;;19.19;82.57
45793;BME280;31495;42.740;22.908;2023-08-06T02:35:08;91981.69;;;19.37;81.96
45793;BME280;31495;42.740;22.908;2023-08-06T02:36:08;91977.19;;;19.38;81.35
45793;BME280;31495;42.740;22.908;2023-08-06T02:37:07;91947.28;;;19.11;80.77
45793;BME280;31495;42.740;22.908;2023-08-06T02:38:07;91978.56;;;19.49;81.21
45793;BME280;31495;42.740;22.908;2023-08-06T02:39:06;91978.44;;;19.54;81.24
45793;BME280;31495;42.740;22.908;2023-08-06T02:40:06;91975.25;;;19.57;81.83
45793;BME280;31495;42.740;22.908;2023-08-06T02:41:05;91959.31;;;19.54;81.82
45793;BME280;31495;42.740;22.908;2023-08-06T02:42:06;91969.03;;;19.67;81.10
45793;BME280;31495;42.740;22.908;2023-08-06T02:43:07;91977.06;;;19.71;81.44
45793;BME280;31495;42.740;22.908;2023-08-06T02:44:06;91967.38;;;19.57;81.15
45793;BME280;31495;42.740;22.908;2023-08-06T02:45:06;91947.50;;;19.28;80.94
45793;BME280;31495;42.740;22.908;2023-08-06T02:46:05;91957.09;;;19.33;81.36
45793;BME280;31495;42.740;22.908;2023-08-06T02:47:05;91971.56;;;19.44;82.12
45793;BME280;31495;42.740;22.908;2023-08-06T02:48:05;91936.72;;;19.16;81.29
45793;BME280;31495;42.740;22.908;2023-08-06T02:49:06;91987.59;;;19.43;81.52
45793;BME280;31495;42.740;22.908;2023-08-06T02:50:05;91954.09;;;19.26;81.57
45793;BME280;31495;42.740;22.908;2023-08-06T02:51:05;91974.38;;;19.34;81.67
45793;BME280;31495;42.740;22.908;2023-08-06T02:52:05;91973.34;;;19.35;81.75
45793;BME280;31495;42.740;22.908;2023-08-06T02:53:05;91933.72;;;19.09;81.66
45793;BME280;31495;42.740;22.908;2023-08-06T02:54:05;91928.94;;;19.11;81.65
45793;BME280;31495;42.740;22.908;2023-08-06T02:55:04;91948.38;;;19.24;81.53
45793;BME280;31495;42.740;22.908;2023-08-06T02:56:04;91974.19;;;19.44;81.13
45793;BME280;31495;42.740;22.908;2023-08-06T02:57:04;91971.47;;;19.36;80.65
45793;BME280;31495;42.740;22.908;2023-08-06T02:58:04;91954.59;;;19.14;80.81
45793;BME280;31495;42.740;22.908;2023-08-06T02:59:03;91947.69;;;19.18;81.41
45793;BME280;31495;42.740;22.908;2023-08-06T03:00:03;91968.09;;;19.35;81.74
45793;BME280;31495;42.740;22.908;2023-08-06T03:01:05;91926.13;;;19.07;81.77
45793;BME280;31495;42.740;22.908;2023-08-06T03:02:05;91944.66;;;19.25;81.29
45793;BME280;31495;42.740;22.908;2023-08-06T03:03:05;91949.72;;;19.35;81.08
45793;BME280;31495;42.740;22.908;2023-08-06T03:04:04;91973.13;;;19.45;80.63
45793;BME280;31495;42.740;22.908;2023-08-06T03:05:04;91959.72;;;19.33;81.12
45793;BME280;31495;42.740;22.908;2023-08-06T03:06:05;91957.09;;;19.33;81.24
45793;BME280;31495;42.740;22.908;2023-08-06T03:07:04;91972.94;;;19.42;81.65
45793;BME280;31495;42.740;22.908;2023-08-06T03:08:04;91976.53;;;19.46;81.40
45793;BME280;31495;42.740;22.908;2023-08-06T03:09:03;91964.78;;;19.43;81.87
45793;BME280;31495;42.740;22.908;2023-08-06T03:10:03;91959.53;;;19.43;81.73
45793;BME280;31495;42.740;22.908;2023-08-06T03:11:02;91974.78;;;19.55;81.61
45793;BME280;31495;42.740;22.908;2023-08-06T03:12:02;91967.66;;;19.56;81.60
45793;BME280;31495;42.740;22.908;2023-08-06T03:13:02;91977.75;;;19.62;81.16
45793;BME280;31495;42.740;22.908;2023-08-06T03:14:01;91963.41;;;19.60;81.54
45793;BME280;31495;42.740;22.908;2023-08-06T03:15:00;91917.47;;;19.35;80.91
45793;BME280;31495;42.740;22.908;2023-08-06T03:16:00;91973.59;;;19.75;80.73
45793;BME280;31495;42.740;22.908;2023-08-06T03:17:01;91974.06;;;19.77;80.77
45793;BME280;31495;42.740;22.908;2023-08-06T03:18:00;91972.13;;;19.83;80.41
45793;BME280;31495;42.740;22.908;2023-08-06T03:19:00;91969.41;;;19.88;79.60
45793;BME280;31495;42.740;22.908;2023-08-06T03:20:00;91971.38;;;19.82;79.39
45793;BME280;31495;42.740;22.908;2023-08-06T03:20:59;91964.44;;;19.87;79.49
45793;BME280;31495;42.740;22.908;2023-08-06T03:21:59;91953.19;;;19.86;78.67
45793;BME280;31495;42.740;22.908;2023-08-06T03:22:58;91952.59;;;19.89;78.70
45793;BME280;31495;42.740;22.908;2023-08-06T03:23:57;91955.88;;;19.95;79.00
45793;BME280;31495;42.740;22.908;2023-08-06T03:24:57;91942.28;;;19.79;79.37
45793;BME280;31495;42.740;22.908;2023-08-06T03:26:01;91918.22;;;19.63;79.19
45793;BME280;31495;42.740;22.908;2023-08-06T03:27:01;91936.94;;;19.70;79.29
45793;BME280;31495;42.740;22.908;2023-08-06T03:28:00;91920.94;;;19.58;79.70
45793;BME280;31495;42.740;22.908;2023-08-06T03:29:00;91960.38;;;19.80;79.83
45793;BME280;31495;42.740;22.908;2023-08-06T03:29:59;91978.25;;;19.92;79.38
45793;BME280;31495;42.740;22.908;2023-08-06T03:31:01;91981.06;;;19.96;79.92
45793;BME280;31495;42.740;22.908;2023-08-06T03:32:01;91972.31;;;19.87;80.21
45793;BME280;31495;42.740;22.908;2023-08-06T03:33:01;91938.91;;;19.64;79.92
45793;BME280;31495;42.740;22.908;2023-08-06T03:34:00;91973.69;;;19.84;79.81
45793;BME280;31495;42.740;22.908;2023-08-06T03:35:00;91951.94;;;19.70;79.62
45793;BME280;31495;42.740;22.908;2023-08-06T03:35:59;91973.38;;;19.72;79.20
45793;BME280;31495;42.740;22.908;2023-08-06T03:36:58;91958.53;;;19.67;79.08
45793;BME280;31495;42.740;22.908;2023-08-06T03:37:58;91964.94;;;19.75;78.86
45793;BME280;31495;42.740;22.908;2023-08-06T03:38:57;91967.66;;;19.70;79.52
45793;BME280;31495;42.740;22.908;2023-08-06T03:39:57;91958.03;;;19.65;79.06
45793;BME280;31495;42.740;22.908;2023-08-06T03:40:56;91930.94;;;19.56;79.00
45793;BME280;31495;42.740;22.908;2023-08-06T03:41:55;91943.94;;;19.75;78.62
45793;BME280;31495;42.740;22.908;2023-08-06T03:42:55;91948.22;;;19.71;79.19
45793;BME280;31495;42.740;22.908;2023-08-06T03:43:54;91922.13;;;19.52;79.63
45793;BME280;31495;42.740;22.908;2023-08-06T03:44:54;91954.16;;;19.62;80.45
45793;BME280;31495;42.740;22.908;2023-08-06T03:45:53;91945.69;;;19.65;80.38
45793;BME280;31495;42.740;22.908;2023-08-06T03:46:53;91940.09;;;19.58;80.47
45793;BME280;31495;42.740;22.908;2023-08-06T03:47:52;91928.72;;;19.49;79.95
45793;BME280;31495;42.740;22.908;2023-08-06T03:48:52;91934.94;;;19.53;80.23
45793;BME280;31495;42.740;22.908;2023-08-06T03:49:51;91917.75;;;19.33;80.76
45793;BME280;31495;42.740;22.908;2023-08-06T03:50:51;91960.84;;;19.69;79.85
45793;BME280;31495;42.740;22.908;2023-08-06T03:51:50;91963.28;;;19.65;80.43
45793;BME280;31495;42.740;22.908;2023-08-06T03:52:50;91956.69;;;19.54;81.03
45793;BME280;31495;42.740;22.908;2023-08-06T03:53:49;91938.44;;;19.35;81.03
45793;BME280;31495;42.740;22.908;2023-08-06T03:54:48;91929.72;;;19.12;80.94
45793;BME280;31495;42.740;22.908;2023-08-06T03:55:48;91956.81;;;19.21;81.77
45793;BME280;31495;42.740;22.908;2023-08-06T03:56:47;91964.00;;;19.29;82.02
45793;BME280;31495;42.740;22.908;2023-08-06T03:57:47;91963.41;;;19.18;81.49
45793;BME280;31495;42.740;22.908;2023-08-06T03:58:46;91961.84;;;18.89;81.95
45793;BME280;31495;42.740;22.908;2023-08-06T03:59:45;91960.63;;;18.82;82.72
45793;BME280;31495;42.740;22.908;2023-08-06T04:00:45;91971.38;;;18.99;82.63
45793;BME280;31495;42.740;22.908;2023-08-06T04:01:44;91964.38;;;18.95;82.49
45793;BME280;31495;42.740;22.908;2023-08-06T04:02:44;91982.44;;;19.10;83.05
45793;BME280;31495;42.740;22.908;2023-08-06T04:03:43;91980.31;;;19.12;83.18
45793;BME280;31495;42.740;22.908;2023-08-06T04:04:43;91973.13;;;19.04;83.64
45793;BME280;31495;42.740;22.908;2023-08-06T04:05:42;91980.50;;;19.16;83.43
45793;BME280;31495;42.740;22.908;2023-08-06T04:06:42;91986.53;;;19.16;83.62
45793;BME280;31495;42.740;22.908;2023-08-06T04:07:41;91976.13;;;19.11;83.43
45793;BME280;31495;42.740;22.908;2023-08-06T04:08:41;91973.13;;;19.18;82.99
45793;BME280;31495;42.740;22.908;2023-08-06T04:09:54;91997.72;;;19.36;83.17
45793;BME280;31495;42.740;22.908;2023-08-06T04:10:53;91998.59;;;19.45;82.64
45793;BME280;31495;42.740;22.908;2023-08-06T04:11:53;91993.81;;;19.47;82.34
45793;BME280;31495;42.740;22.908;2023-08-06T04:12:52;91986.53;;;19.44;82.16
45793;BME280;31495;42.740;22.908;2023-08-06T04:13:51;92001.47;;;19.57;82.81
45793;BME280;31495;42.740;22.908;2023-08-06T04:14:52;91982.84;;;19.45;82.71
45793;BME280;31495;42.740;22.908;2023-08-06T04:15:51;91993.63;;;19.57;82.03
45793;BME280;31495;42.740;22.908;2023-08-06T04:16:51;91985.56;;;19.54;81.97
45793;BME280;31495;42.740;22.908;2023-08-06T04:17:50;92007.03;;;19.70;81.78
45793;BME280;31495;42.740;22.908;2023-08-06T04:18:49;91986.72;;;19.61;81.21
45793;BME280;31495;42.740;22.908;2023-08-06T04:19:51;91963.81;;;19.53;81.06
45793;BME280;31495;42.740;22.908;2023-08-06T04:20:51;92005.28;;;19.79;80.24
45793;BME280;31495;42.740;22.908;2023-08-06T04:21:51;91980.91;;;19.64;78.91
45793;BME280;31495;42.740;22.908;2023-08-06T04:22:54;92000.66;;;19.76;79.52
45793;BME280;31495;42.740;22.908;2023-08-06T04:23:53;92005.78;;;19.81;79.98
45793;BME280;31495;42.740;22.908;2023-08-06T04:24:53;91971.66;;;19.67;79.67
45793;BME280;31495;42.740;22.908;2023-08-06T04:25:56;92009.53;;;19.89;79.59
45793;BME280;31495;42.740;22.908;2023-08-06T04:26:56;91970.09;;;19.66;79.54
45793;BME280;31495;42.740;22.908;2023-08-06T04:27:55;92001.31;;;19.81;78.98
45793;BME280;31495;42.740;22.908;2023-08-06T04:28:55;92007.13;;;19.78;78.54
45793;BME280;31495;42.740;22.908;2023-08-06T04:29:55;92011.97;;;19.71;79.51
45793;BME280;31495;42.740;22.908;2023-08-06T04:30:54;92008.78;;;19.74;79.97
45793;BME280;31495;42.740;22.908;2023-08-06T04:31:54;92010.59;;;19.74;79.19
45793;BME280;31495;42.740;22.908;2023-08-06T04:32:53;91999.91;;;19.70;79.22
45793;BME280;31495;42.740;22.908;2023-08-06T04:33:52;91998.06;;;19.71;79.95
45793;BME280;31495;42.740;22.908;2023-08-06T04:34:52;92011.97;;;19.85;80.43
45793;BME280;31495;42.740;22.908;2023-08-06T04:35:55;91999.25;;;19.78;79.27
45793;BME280;31495;42.740;22.908;2023-08-06T04:36:58;92002.19;;;19.77;78.77
45793;BME280;31495;42.740;22.908;2023-08-06T04:37:57;92006.22;;;19.69;78.91
45793;BME280;31495;42.740;22.908;2023-08-06T04:38:57;92002.94;;;19.63;80.02
45793;BME280;31495;42.740;22.908;2023-08-06T04:39:56;92001.69;;;19.47;79.17
45793;BME280;31495;42.740;22.908;2023-08-06T04:40:56;91977.72;;;19.40;79.73
45793;BME280;31495;42.740;22.908;2023-08-06T04:41:56;91995.47;;;19.43;80.07
45793;BME280;31495;42.740;22.908;2023-08-06T04:42:56;92000.63;;;19.48;80.42
45793;BME280;31495;42.740;22.908;2023-08-06T04:43:56;91989.44;;;19.15;81.27
45793;BME280;31495;42.740;22.908;2023-08-06T04:44:56;91995.75;;;19.27;81.68
45793;BME280;31495;42.740;22.908;2023-08-06T04:45:55;91964.66;;;19.07;82.36
45793;BME280;31495;42.740;22.908;2023-08-06T04:46:55;91985.47;;;19.31;81.94
45793;BME280;31495;42.740;22.908;2023-08-06T04:47:54;91974.59;;;19.24;82.92
45793;BME280;31495;42.740;22.908;2023-08-06T04:48:54;91959.44;;;19.21;82.70
45793;BME280;31495;42.740;22.908;2023-08-06T04:49:53;91992.09;;;19.28;83.57
45793;BME280;31495;42.740;22.908;2023-08-06T04:50:53;91991.50;;;19.32;82.92
45793;BME280;31495;42.740;22.908;2023-08-06T04:51:53;91991.97;;;19.34;82.32
45793;BME280;31495;42.740;22.908;2023-08-06T04:52:53;91994.13;;;19.32;82.32
45793;BME280;31495;42.740;22.908;2023-08-06T04:53:52;91965.97;;;19.23;82.30
45793;BME280;31495;42.740;22.908;2023-08-06T04:54:52;91988.69;;;19.42;81.33
45793;BME280;31495;42.740;22.908;2023-08-06T04:55:51;91993.44;;;19.40;81.78
45793;BME280;31495;42.740;22.908;2023-08-06T04:56:51;91996.63;;;19.23;81.75
45793;BME280;31495;42.740;22.908;2023-08-06T04:57:50;91981.66;;;19.09;82.19
45793;BME280;31495;42.740;22.908;2023-08-06T04:58:50;91976.72;;;19.08;82.09
45793;BME280;31495;42.740;22.908;2023-08-06T04:59:49;91994.28;;;19.21;81.97
45793;BME280;31495;42.740;22.908;2023-08-06T05:00:49;91982.63;;;19.00;82.84
45793;BME280;31495;42.740;22.908;2023-08-06T05:01:48;91987.38;;;19.12;82.91
45793;BME280;31495;42.740;22.908;2023-08-06T05:02:47;91992.63;;;19.12;82.92
45793;BME280;31495;42.740;22.908;2023-08-06T05:03:47;91969.81;;;18.98;83.14
45793;BME280;31495;42.740;22.908;2023-08-06T05:04:47;91992.34;;;19.13;83.08
45793;BME280;31495;42.740;22.908;2023-08-06T05:05:46;91981.28;;;19.16;82.96
45793;BME280;31495;42.740;22.908;2023-08-06T05:06:46;91984.88;;;19.20;82.47
45793;BME280;31495;42.740;22.908;2023-08-06T05:07:48;91981.75;;;19.18;81.35
45793;BME280;31495;42.740;22.908;2023-08-06T05:08:48;91960.13;;;19.13;81.13
45793;BME280;31495;42.740;22.908;2023-08-06T05:09:47;91984.78;;;19.25;81.34
45793;BME280;31495;42.740;22.908;2023-08-06T05:10:47;91962.25;;;19.24;81.33
45793;BME280;31495;42.740;22.908;2023-08-06T05:11:47;91954.19;;;19.21;81.28
45793;BME280;31495;42.740;22.908;2023-08-06T05:12:47;91973.63;;;19.34;80.69
45793;BME280;31495;42.740;22.908;2023-08-06T05:13:46;91966.03;;;19.32;80.14
45793;BME280;31495;42.740;22.908;2023-08-06T05:14:46;91958.75;;;19.29;79.47
45793;BME280;31495;42.740;22.908;2023-08-06T05:15:45;91966.13;;;19.41;80.14
45793;BME280;31495;42.740;22.908;2023-08-06T05:16:45;91967.13;;;19.45;80.65
45793;BME280;31495;42.740;22.908;2023-08-06T05:17:45;91930.41;;;19.17;80.52
45793;BME280;31495;42.740;22.908;2023-08-06T05:18:44;91951.38;;;19.31;80.28
45793;BME280;31495;42.740;22.908;2023-08-06T05:19:44;91972.25;;;19.50;79.96
45793;BME280;31495;42.740;22.908;2023-08-06T05:20:44;91957.38;;;19.45;79.25